Time;durP1;ratioP1;P1;durP2;ratioP2;P2;SDS_P1;SDS_P2;PMS_P1;PMS_P2;Temp;Humidity;BMP_temperature;BMP_pressure;BME280_temperature;BME280_humidity;BME280_pressure;Samples;Min_cycle;Max_cycle;Signal;HPM_P1;HPM_P2
2022/01/29 00:01:34;;;;;;;18.38;6.15;;;154.40;1664.00;;;;;;5086210;28;20029;-62
2022/01/29 00:04:00;;;;;;;12.68;5.53;;;154.40;1664.00;;;;;;5078046;28;20017;-61
2022/01/29 00:06:26;;;;;;;9.25;4.47;;;154.40;1664.00;;;;;;5077993;28;20032;-62
2022/01/29 00:08:54;;;;;;;9.65;4.32;;;154.40;1664.00;;;;;;5088350;28;20017;-63
2022/01/29 00:11:26;;;;;;;14.07;4.57;;;154.40;1664.00;;;;;;5099452;28;20039;-64
2022/01/29 00:13:52;;;;;;;17.42;5.65;;;154.30;1664.00;;;;;;5099562;28;20015;-64
2022/01/29 00:16:17;;;;;;;13.73;5.85;;;154.30;1689.60;;;;;;5099497;28;20032;-64
2022/01/29 00:18:43;;;;;;;24.50;7.78;;;154.30;1664.00;;;;;;5099530;28;20036;-65
2022/01/29 00:21:09;;;;;;;20.50;6.95;;;154.30;1689.60;;;;;;5099388;28;20020;-65
2022/01/29 00:23:35;;;;;;;20.20;6.38;;;154.30;1689.60;;;;;;5099158;28;20041;-65
2022/01/29 00:26:01;;;;;;;24.92;7.38;;;154.30;1689.60;;;;;;5099237;28;20031;-66
2022/01/29 00:28:27;;;;;;;25.33;7.22;;;154.30;1689.60;;;;;;5099274;28;20012;-65
2022/01/29 00:30:53;;;;;;;22.42;5.90;;;154.20;1689.60;;;;;;5098898;28;20084;-69
2022/01/29 00:33:19;;;;;;;17.70;6.38;;;154.40;1894.40;;;;;;5099234;28;20017;-65
2022/01/29 00:35:45;;;;;;;15.55;6.47;;;179.40;1920.00;;;;;;5099105;28;20009;-66
2022/01/29 00:38:10;;;;;;;21.98;5.68;;;179.20;1766.40;;;;;;5099103;28;20139;-67
2022/01/29 00:40:37;;;;;;;14.95;5.10;;;179.20;1740.80;;;;;;5098382;28;20009;-65
2022/01/29 00:43:04;;;;;;;17.85;5.60;;;179.20;1689.60;;;;;;5098706;28;20023;-66
2022/01/29 00:45:31;;;;;;;20.40;5.47;;;179.20;1689.60;;;;;;5099125;28;20028;-65
2022/01/29 00:47:57;;;;;;;21.50;6.25;;;179.20;1689.60;;;;;;5098873;28;20032;-65
2022/01/29 00:50:23;;;;;;;14.05;4.82;;;154.50;1689.60;;;;;;5098980;28;20024;-64
2022/01/29 00:52:48;;;;;;;12.73;4.65;;;154.50;1689.60;;;;;;5098791;28;20055;-65
2022/01/29 00:55:14;;;;;;;15.18;4.88;;;154.50;1664.00;;;;;;5098990;28;20028;-64
2022/01/29 00:57:40;;;;;;;17.05;4.80;;;154.50;1689.60;;;;;;5098819;28;20023;-64
2022/01/29 01:00:08;;;;;;;17.80;4.78;;;154.40;1689.60;;;;;;5098617;28;20032;-65
2022/01/29 01:02:34;;;;;;;14.90;4.47;;;154.40;1689.60;;;;;;5098603;28;20017;-65
2022/01/29 01:05:00;;;;;;;11.07;4.32;;;154.30;1689.60;;;;;;5098754;28;20032;-64
2022/01/29 01:07:26;;;;;;;9.68;3.90;;;154.30;1689.60;;;;;;5098669;28;20024;-64
2022/01/29 01:09:52;;;;;;;13.35;4.32;;;154.30;1689.60;;;;;;5098385;28;20073;-65
2022/01/29 01:12:18;;;;;;;12.77;3.97;;;154.30;1689.60;;;;;;5098653;28;20028;-65
2022/01/29 01:14:44;;;;;;;15.40;4.47;;;154.30;1689.60;;;;;;5098631;28;20068;-65
2022/01/29 01:17:09;;;;;;;16.30;4.55;;;154.20;1689.60;;;;;;5098587;28;20016;-64
2022/01/29 01:19:35;;;;;;;8.68;3.75;;;154.20;1689.60;;;;;;5098541;28;20070;-65
2022/01/29 01:22:02;;;;;;;16.48;4.05;;;154.20;1689.60;;;;;;5098524;28;20028;-65
2022/01/29 01:24:27;;;;;;;12.55;4.43;;;154.20;1689.60;;;;;;5098437;28;20023;-64
2022/01/29 01:26:53;;;;;;;12.23;4.82;;;154.10;1689.60;;;;;;5098663;28;20004;-64
2022/01/29 01:29:19;;;;;;;10.15;4.38;;;154.10;1689.60;;;;;;5098422;28;20080;-64
2022/01/29 01:31:45;;;;;;;13.88;5.15;;;154.10;1689.60;;;;;;5098487;28;20046;-63
2022/01/29 01:34:19;;;;;;;13.90;5.18;;;154.00;1715.20;;;;;;5098520;28;20013;-64
2022/01/29 01:36:53;;;;;;;15.23;5.47;;;154.00;1715.20;;;;;;5098142;28;20020;-64
2022/01/29 01:39:23;;;;;;;18.70;5.53;;;154.00;1715.20;;;;;;5098435;28;20009;-64
2022/01/29 01:41:56;;;;;;;18.75;4.95;;;154.00;1689.60;;;;;;5098435;28;20017;-64
2022/01/29 01:44:22;;;;;;;17.73;4.40;;;153.90;1715.20;;;;;;5098389;28;20040;-64
2022/01/29 01:46:48;;;;;;;12.98;4.90;;;153.90;1715.20;;;;;;5098354;28;20250;-63
2022/01/29 01:49:16;;;;;;;12.25;4.50;;;153.90;1715.20;;;;;;5098301;28;20027;-63
2022/01/29 01:51:42;;;;;;;13.00;4.80;;;153.90;1715.20;;;;;;5098054;28;20040;-63
2022/01/29 01:54:09;;;;;;;9.75;3.78;;;153.90;1715.20;;;;;;5101847;28;20035;-63
2022/01/29 01:56:34;;;;;;;15.77;4.53;;;153.90;1715.20;;;;;;5102167;28;20024;-64
2022/01/29 01:59:00;;;;;;;12.70;4.80;;;153.90;1715.20;;;;;;5102127;28;20083;-63
2022/01/29 02:01:26;;;;;;;11.95;3.92;;;153.90;1715.20;;;;;;5102146;28;20013;-62
2022/01/29 02:03:52;;;;;;;15.85;4.53;;;153.90;1715.20;;;;;;5102033;28;20009;-63
2022/01/29 02:06:19;;;;;;;15.55;3.58;;;153.90;1715.20;;;;;;5101784;28;20080;-62
2022/01/29 02:08:45;;;;;;;12.43;4.88;;;153.90;1715.20;;;;;;5101886;28;20062;-63
2022/01/29 02:11:11;;;;;;;10.75;3.80;;;153.90;1715.20;;;;;;5101817;28;20020;-62
2022/01/29 02:13:37;;;;;;;14.98;4.47;;;153.90;1715.20;;;;;;5101928;28;20016;-63
2022/01/29 02:16:04;;;;;;;10.98;3.47;;;153.90;1715.20;;;;;;5101805;28;20039;-62
2022/01/29 02:18:30;;;;;;;11.40;4.55;;;153.90;1715.20;;;;;;5101741;28;20009;-63
2022/01/29 02:20:58;;;;;;;25.10;10.13;;;153.90;1740.80;;;;;;5101633;28;20024;-63
2022/01/29 02:23:24;;;;;;;20.27;11.18;;;153.90;1715.20;;;;;;5101799;28;20084;-63
2022/01/29 02:25:50;;;;;;;18.48;10.20;;;153.90;1715.20;;;;;;5101573;28;20035;-64
2022/01/29 02:28:20;;;;;;;18.23;7.82;;;153.90;1715.20;;;;;;5101590;28;20044;-63
2022/01/29 02:31:00;;;;;;;15.32;5.97;;;153.90;1715.20;;;;;;5101384;28;20122;-63
2022/01/29 02:33:26;;;;;;;16.30;5.07;;;153.90;1740.80;;;;;;5101418;28;20016;-64
2022/01/29 02:35:54;;;;;;;19.05;6.72;;;153.80;1715.20;;;;;;5101532;28;20036;-63
2022/01/29 02:38:23;;;;;;;18.58;7.25;;;153.80;1715.20;;;;;;5101409;28;20041;-63
2022/01/29 02:41:01;;;;;;;21.92;9.20;;;153.80;1715.20;;;;;;5101386;28;20012;-63
2022/01/29 02:43:32;;;;;;;24.67;11.13;;;153.90;1715.20;;;;;;5101330;28;20009;-62
2022/01/29 02:46:21;;;;;;;20.13;9.32;;;153.80;1715.20;;;;;;5101252;28;20127;-63
2022/01/29 02:48:50;;;;;;;22.90;8.60;;;153.80;1689.60;;;;;;5101152;28;20039;-63
2022/01/29 02:51:16;;;;;;;21.02;8.27;;;153.70;1715.20;;;;;;5100980;28;20044;-63
2022/01/29 02:53:43;;;;;;;13.63;5.18;;;153.70;1715.20;;;;;;5101207;28;20013;-63
2022/01/29 02:56:09;;;;;;;15.18;4.43;;;153.80;1715.20;;;;;;5100974;28;20036;-63
2022/01/29 02:58:35;;;;;;;16.67;4.20;;;153.70;1715.20;;;;;;5100511;28;20135;-64
2022/01/29 03:01:02;;;;;;;11.10;3.78;;;153.60;1715.20;;;;;;5100939;28;20013;-63
2022/01/29 03:03:27;;;;;;;18.85;4.72;;;153.70;1715.20;;;;;;5100525;28;20031;-62
2022/01/29 03:05:54;;;;;;;11.50;3.30;;;153.60;1715.20;;;;;;5100298;28;20120;-62
2022/01/29 03:08:20;;;;;;;11.75;3.92;;;153.60;1715.20;;;;;;5100875;28;20017;-63
2022/01/29 03:10:49;;;;;;;13.18;3.63;;;153.60;1715.20;;;;;;5100772;28;20035;-63
2022/01/29 03:13:16;;;;;;;11.43;3.75;;;153.60;1715.20;;;;;;5100448;28;20039;-63
2022/01/29 03:15:41;;;;;;;8.57;3.45;;;153.60;1715.20;;;;;;5100800;28;20036;-62
2022/01/29 03:18:07;;;;;;;9.98;3.13;;;153.60;1715.20;;;;;;5100697;28;20047;-63
2022/01/29 03:20:33;;;;;;;12.60;3.75;;;153.60;1715.20;;;;;;5100646;28;20035;-64
2022/01/29 03:22:59;;;;;;;9.95;3.05;;;153.60;1689.60;;;;;;5100607;28;20013;-64
2022/01/29 03:25:25;;;;;;;9.18;3.22;;;153.60;1689.60;;;;;;5100597;28;20020;-64
2022/01/29 03:27:51;;;;;;;8.00;2.90;;;153.60;1715.20;;;;;;5100505;28;20047;-64
2022/01/29 03:30:17;;;;;;;7.53;2.72;;;153.60;1689.60;;;;;;5100447;28;20008;-63
2022/01/29 03:32:43;;;;;;;10.55;3.10;;;153.60;1715.20;;;;;;5100376;28;20020;-64
2022/01/29 03:35:10;;;;;;;9.82;3.47;;;153.60;1715.20;;;;;;5100504;28;20008;-64
2022/01/29 03:37:36;;;;;;;6.18;2.60;;;153.60;1689.60;;;;;;5100010;28;20035;-63
2022/01/29 03:40:05;;;;;;;9.18;3.30;;;128.90;1715.20;;;;;;5100430;28;20013;-64
2022/01/29 03:42:36;;;;;;;10.27;3.08;;;153.60;1715.20;;;;;;5100144;28;20061;-63
2022/01/29 03:45:06;;;;;;;10.07;2.90;;;128.90;1715.20;;;;;;5100128;28;20054;-63
2022/01/29 03:47:31;;;;;;;11.52;3.13;;;153.60;1715.20;;;;;;5100155;28;20059;-63
2022/01/29 03:49:57;;;;;;;9.13;2.97;;;128.90;1715.20;;;;;;5100139;28;20017;-63
2022/01/29 03:52:23;;;;;;;7.05;3.05;;;128.90;1715.20;;;;;;5099945;28;20024;-63
2022/01/29 03:54:48;;;;;;;6.70;2.83;;;128.80;1715.20;;;;;;5099946;28;20017;-64
2022/01/29 03:57:14;;;;;;;13.20;3.92;;;128.80;1715.20;;;;;;5099942;28;20063;-63
2022/01/29 03:59:40;;;;;;;13.60;3.80;;;128.90;1689.60;;;;;;5099768;28;20071;-63
2022/01/29 04:02:06;;;;;;;9.13;3.25;;;128.90;1689.60;;;;;;5099788;28;20016;-63
2022/01/29 04:04:31;;;;;;;12.43;3.65;;;128.90;1689.60;;;;;;5099785;28;20032;-62
2022/01/29 04:07:04;;;;;;;7.38;3.00;;;128.80;1689.60;;;;;;5099659;28;20013;-62
2022/01/29 04:09:30;;;;;;;13.43;4.60;;;128.80;1689.60;;;;;;5099734;28;20028;-61
2022/01/29 04:11:55;;;;;;;14.40;4.97;;;128.80;1689.60;;;;;;5099640;28;20032;-63
2022/01/29 04:14:22;;;;;;;12.80;5.20;;;128.80;1715.20;;;;;;5099547;28;20023;-63
2022/01/29 04:16:48;;;;;;;9.73;4.32;;;128.70;1689.60;;;;;;5099386;28;20050;-65
2022/01/29 04:19:13;;;;;;;24.95;6.78;;;128.70;1689.60;;;;;;5099180;28;20021;-63
2022/01/29 04:21:42;;;;;;;14.18;4.72;;;128.70;1715.20;;;;;;5099479;28;20013;-62
2022/01/29 04:24:08;;;;;;;21.58;6.75;;;128.60;1689.60;;;;;;5099407;28;20005;-63
2022/01/29 04:26:35;;;;;;;31.10;7.15;;;128.70;1740.80;;;;;;5099238;28;20024;-63
2022/01/29 04:29:06;;;;;;;22.92;6.93;;;128.80;1766.40;;;;;;5099225;28;20020;-62
2022/01/29 04:31:44;;;;;;;25.35;7.25;;;128.70;1715.20;;;;;;5099259;28;20466;-62
2022/01/29 04:34:10;;;;;;;18.33;7.30;;;128.70;1715.20;;;;;;5099239;28;20009;-63
2022/01/29 04:36:36;;;;;;;17.05;7.47;;;128.60;1689.60;;;;;;5098762;28;20009;-63
2022/01/29 04:39:02;;;;;;;21.90;7.40;;;128.60;1689.60;;;;;;5099118;28;20008;-63
2022/01/29 04:41:28;;;;;;;25.58;10.82;;;128.70;1689.60;;;;;;5098168;28;20040;-63
2022/01/29 04:43:54;;;;;;;24.05;10.43;;;128.60;1689.60;;;;;;5099075;28;20116;-62
2022/01/29 04:46:20;;;;;;;32.85;14.07;;;128.60;1689.60;;;;;;5098943;28;20021;-63
2022/01/29 04:48:45;;;;;;;35.53;15.27;;;128.60;1689.60;;;;;;5098914;28;20027;-63
2022/01/29 04:51:11;;;;;;;28.88;13.20;;;128.60;1689.60;;;;;;5098878;28;20036;-62
2022/01/29 04:53:40;;;;;;;19.73;10.02;;;128.60;1689.60;;;;;;5098999;28;20013;-62
2022/01/29 04:56:06;;;;;;;24.83;10.95;;;128.60;1689.60;;;;;;5098851;28;20009;-62
2022/01/29 04:58:32;;;;;;;19.00;8.93;;;128.60;1689.60;;;;;;5098675;28;20028;-62
2022/01/29 05:00:58;;;;;;;17.02;8.25;;;128.60;1664.00;;;;;;5098663;28;20032;-62
2022/01/29 05:03:23;;;;;;;15.70;7.30;;;128.50;1689.60;;;;;;5098800;28;20036;-63
2022/01/29 05:05:49;;;;;;;15.98;7.80;;;128.50;1664.00;;;;;;5098745;28;20076;-63
2022/01/29 05:08:16;;;;;;;15.93;7.50;;;128.50;1689.60;;;;;;5098725;28;20076;-62
2022/01/29 05:10:42;;;;;;;16.05;7.63;;;128.50;1664.00;;;;;;5098771;28;20021;-62
2022/01/29 05:13:11;;;;;;;18.67;7.05;;;128.50;1664.00;;;;;;5098584;28;20042;-62
2022/01/29 05:15:41;;;;;;;21.02;8.50;;;128.50;1664.00;;;;;;5098609;28;20031;-62
2022/01/29 05:29:08;;;;;;;20.08;8.60;;;128.30;1689.60;;;;;;5098553;28;20015;-62
2022/01/29 05:31:34;;;;;;;18.40;7.82;;;128.30;1689.60;;;;;;5098414;28;20048;-62
2022/01/29 05:34:01;;;;;;;15.43;6.78;;;128.30;1689.60;;;;;;5098486;28;20008;-62
2022/01/29 05:36:27;;;;;;;14.07;6.07;;;128.30;1689.60;;;;;;5098318;28;20016;-63
2022/01/29 05:38:52;;;;;;;13.65;6.45;;;128.30;1689.60;;;;;;5098371;28;20031;-62
2022/01/29 05:41:18;;;;;;;18.75;7.45;;;128.30;1689.60;;;;;;5098408;28;20016;-62
2022/01/29 05:43:44;;;;;;;22.17;8.80;;;128.30;1689.60;;;;;;5098332;28;20007;-64
2022/01/29 05:46:15;;;;;;;32.17;12.77;;;128.30;1689.60;;;;;;5098335;28;20105;-63
2022/01/29 05:48:41;;;;;;;41.00;15.00;;;128.20;1689.60;;;;;;5098289;28;20039;-64
2022/01/29 05:51:10;;;;;;;39.65;17.92;;;128.20;1689.60;;;;;;5097933;28;20031;-63
2022/01/29 05:53:36;;;;;;;42.78;18.10;;;128.20;1689.60;;;;;;5098165;28;20013;-63
2022/01/29 05:56:02;;;;;;;52.78;23.55;;;128.20;1715.20;;;;;;5098258;28;20039;-63
2022/01/29 05:58:28;;;;;;;45.45;21.67;;;128.10;1689.60;;;;;;5098082;28;20009;-64
2022/01/29 06:00:53;;;;;;;31.65;14.88;;;128.10;1715.20;;;;;;5097246;28;20088;-63
2022/01/29 06:03:19;;;;;;;28.65;12.25;;;128.10;1715.20;;;;;;5098216;28;20009;-63
2022/01/29 06:05:45;;;;;;;25.80;12.85;;;128.10;1715.20;;;;;;5098078;28;20070;-63
2022/01/29 06:08:11;;;;;;;26.30;12.52;;;128.10;1715.20;;;;;;5098102;28;20013;-63
2022/01/29 06:10:37;;;;;;;27.42;12.93;;;128.10;1715.20;;;;;;5098164;28;20072;-64
2022/01/29 06:13:10;;;;;;;31.90;14.15;;;128.10;1715.20;;;;;;5097726;28;20084;-62
2022/01/29 06:15:42;;;;;;;38.58;15.00;;;128.10;1715.20;;;;;;5098153;28;20032;-61
2022/01/29 06:18:12;;;;;;;28.60;11.82;;;128.10;1715.20;;;;;;5097940;28;20048;-62
2022/01/29 06:20:38;;;;;;;22.40;9.60;;;128.20;1715.20;;;;;;5098044;28;20016;-61
2022/01/29 06:23:03;;;;;;;15.80;7.40;;;128.20;1715.20;;;;;;5097935;28;20038;-63
2022/01/29 06:25:29;;;;;;;13.48;5.95;;;128.20;1715.20;;;;;;5098041;28;20076;-61
2022/01/29 06:27:55;;;;;;;12.65;6.28;;;128.20;1715.20;;;;;;5098017;28;20024;-62
2022/01/29 06:30:22;;;;;;;16.25;6.82;;;128.20;1715.20;;;;;;5097936;28;20091;-63
2022/01/29 06:32:48;;;;;;;15.40;7.57;;;128.20;1740.80;;;;;;5097746;28;20017;-62
2022/01/29 06:35:14;;;;;;;19.83;9.95;;;128.20;1715.20;;;;;;5097715;28;20076;-62
2022/01/29 06:37:40;;;;;;;33.55;17.70;;;128.10;1740.80;;;;;;5097733;28;20013;-62
2022/01/29 06:40:06;;;;;;;62.78;28.50;;;128.20;1740.80;;;;;;5099579;28;20017;-62
2022/01/29 06:42:32;;;;;;;112.03;43.97;;;128.20;1740.80;;;;;;5101115;28;20020;-62
2022/01/29 06:44:58;;;;;;;129.57;49.17;;;128.20;1740.80;;;;;;5101302;28;20019;-63
2022/01/29 06:47:24;;;;;;;166.90;61.45;;;128.20;1715.20;;;;;;5101358;28;20032;-62
2022/01/29 06:49:49;;;;;;;185.43;66.45;;;128.20;1740.80;;;;;;5101203;28;20076;-61
2022/01/29 06:52:15;;;;;;;151.55;58.65;;;128.20;1740.80;;;;;;5100917;28;20040;-63
2022/01/29 06:54:41;;;;;;;96.20;41.65;;;128.10;1740.80;;;;;;5101104;28;20068;-61
2022/01/29 06:57:07;;;;;;;64.65;29.05;;;128.20;1740.80;;;;;;5101078;28;20005;-63
2022/01/29 06:59:32;;;;;;;54.30;24.25;;;128.20;1740.80;;;;;;5100986;28;20060;-63
2022/01/29 07:01:58;;;;;;;50.35;22.25;;;128.10;1740.80;;;;;;5101018;28;20062;-62
2022/01/29 07:04:24;;;;;;;44.45;19.45;;;128.20;1740.80;;;;;;5100958;28;20023;-60
2022/01/29 07:06:49;;;;;;;44.47;17.40;;;128.20;1740.80;;;;;;5097528;28;20155;-58
2022/01/29 07:09:15;;;;;;;37.88;16.00;;;128.20;1740.80;;;;;;5100800;28;20011;-58
2022/01/29 07:11:43;;;;;;;37.50;16.02;;;128.20;1715.20;;;;;;5100696;28;20043;-59
2022/01/29 07:14:15;;;;;;;37.40;16.60;;;128.30;1715.20;;;;;;5100638;28;20076;-59
2022/01/29 07:16:40;;;;;;;33.47;15.23;;;128.40;1715.20;;;;;;5100591;28;20032;-59
2022/01/29 07:19:06;;;;;;;32.08;15.50;;;128.40;1715.20;;;;;;5100326;28;20013;-58
2022/01/29 07:21:32;;;;;;;34.70;15.48;;;128.40;1715.20;;;;;;5100208;28;20017;-60
2022/01/29 07:23:58;;;;;;;37.22;15.65;;;128.40;1715.20;;;;;;5100505;28;20032;-59
2022/01/29 07:26:23;;;;;;;34.78;17.27;;;128.40;1740.80;;;;;;5100489;28;20067;-60
2022/01/29 07:28:49;;;;;;;39.05;16.60;;;128.40;1715.20;;;;;;5100454;28;20059;-60
2022/01/29 07:31:15;;;;;;;31.75;16.27;;;128.40;1715.20;;;;;;5100437;28;20032;-61
2022/01/29 07:33:40;;;;;;;33.00;14.50;;;128.40;1740.80;;;;;;5100370;28;20035;-60
2022/01/29 07:36:06;;;;;;;29.92;14.93;;;128.40;1740.80;;;;;;5099862;28;20039;-62
2022/01/29 07:38:32;;;;;;;28.13;14.35;;;128.50;1715.20;;;;;;5100213;28;20039;-62
2022/01/29 07:40:57;;;;;;;25.42;12.90;;;128.40;1715.20;;;;;;5100136;28;20029;-60
2022/01/29 07:43:23;;;;;;;28.45;13.00;;;128.40;1740.80;;;;;;5100230;28;20039;-60
2022/01/29 07:45:49;;;;;;;21.95;11.13;;;128.50;1715.20;;;;;;5100027;28;20009;-60
2022/01/29 07:48:15;;;;;;;26.15;11.52;;;128.40;1715.20;;;;;;5099942;28;20099;-60
2022/01/29 07:50:40;;;;;;;28.95;14.02;;;128.50;1740.80;;;;;;5099595;28;20064;-60
2022/01/29 07:53:06;;;;;;;29.45;14.68;;;128.50;1740.80;;;;;;5100001;28;20024;-59
2022/01/29 08:07:31;;;;;;;37.47;16.40;;;128.50;1740.80;;;;;;5111959;27;20446;-59
2022/01/29 08:09:57;;;;;;;31.48;16.15;;;154.20;1612.80;;;;;;5111467;28;20407;-60
2022/01/29 08:12:22;;;;;;;28.60;14.95;;;154.00;1638.40;;;;;;5110920;28;20111;-59
2022/01/29 08:14:48;;;;;;;26.27;14.65;;;153.90;1664.00;;;;;;5111224;28;20024;-59
2022/01/29 08:17:14;;;;;;;32.95;16.52;;;153.80;1664.00;;;;;;5111188;28;20027;-60
2022/01/29 08:19:39;;;;;;;39.90;19.13;;;153.70;1664.00;;;;;;5111193;28;20488;-60
2022/01/29 08:22:05;;;;;;;43.85;21.23;;;153.70;1664.00;;;;;;5111201;28;20034;-59
2022/01/29 08:24:31;;;;;;;42.03;19.50;;;153.60;1689.60;;;;;;5111184;28;20499;-59
2022/01/29 08:26:57;;;;;;;38.67;20.17;;;153.60;1689.60;;;;;;5110983;28;20031;-60
2022/01/29 08:29:22;;;;;;;40.53;20.67;;;153.60;1689.60;;;;;;5111220;28;20031;-59
2022/01/29 08:31:48;;;;;;;40.35;18.73;;;153.60;1689.60;;;;;;5110996;28;20027;-59
2022/01/29 08:34:14;;;;;;;30.55;16.58;;;153.60;1689.60;;;;;;5110710;28;20032;-59
2022/01/29 08:36:40;;;;;;;33.85;15.55;;;153.60;1715.20;;;;;;5110732;28;20096;-59
2022/01/29 08:39:05;;;;;;;32.70;16.88;;;153.60;1715.20;;;;;;5110894;28;20035;-59
2022/01/29 08:41:31;;;;;;;39.72;18.63;;;128.90;1715.20;;;;;;5110781;28;20028;-59
2022/01/29 08:43:57;;;;;;;42.22;22.02;;;128.90;1715.20;;;;;;5110493;28;20427;-59
2022/01/29 08:46:23;;;;;;;43.78;22.75;;;128.90;1740.80;;;;;;5110816;28;20069;-60
2022/01/29 08:48:50;;;;;;;37.97;19.95;;;128.90;1740.80;;;;;;5110572;28;20031;-60
2022/01/29 08:51:15;;;;;;;42.65;22.13;;;128.80;1740.80;;;;;;5110618;28;20027;-59
2022/01/29 08:53:41;;;;;;;42.13;21.63;;;128.90;1740.80;;;;;;5091914;28;20058;-59
2022/01/29 08:56:07;;;;;;;40.47;20.60;;;153.60;1740.80;;;;;;5110338;28;20449;-59
2022/01/29 08:58:33;;;;;;;45.40;22.42;;;153.60;1740.80;;;;;;5110513;28;20024;-59
2022/01/29 09:00:59;;;;;;;42.30;21.02;;;153.60;1740.80;;;;;;5110244;28;20035;-60
2022/01/29 09:03:25;;;;;;;30.67;15.05;;;153.60;1740.80;;;;;;5109935;28;20028;-59
2022/01/29 09:05:51;;;;;;;29.55;13.55;;;153.70;1740.80;;;;;;5110008;28;20058;-60
2022/01/29 09:08:17;;;;;;;24.52;11.57;;;153.80;1740.80;;;;;;5097342;28;20042;-59
2022/01/29 09:10:43;;;;;;;23.20;9.50;;;153.90;1715.20;;;;;;5097068;28;20361;-59
2022/01/29 09:13:10;;;;;;;19.45;8.63;;;154.00;1715.20;;;;;;5096574;28;20024;-59
2022/01/29 09:15:36;;;;;;;14.65;7.97;;;154.00;1689.60;;;;;;5096408;28;20043;-60
2022/01/29 09:18:02;;;;;;;13.23;7.45;;;154.00;1689.60;;;;;;5096466;28;20020;-59
2022/01/29 09:20:29;;;;;;;17.13;8.18;;;154.10;1689.60;;;;;;5096261;28;20103;-59
2022/01/29 09:22:55;;;;;;;21.92;10.50;;;154.00;1664.00;;;;;;5096516;28;20024;-59
2022/01/29 09:25:21;;;;;;;23.90;10.45;;;154.10;1664.00;;;;;;5096278;28;20042;-59
2022/01/29 09:27:47;;;;;;;24.55;11.02;;;154.10;1689.60;;;;;;5096242;28;20024;-59
2022/01/29 09:30:13;;;;;;;18.40;9.93;;;154.10;1664.00;;;;;;5095906;28;20034;-59
2022/01/29 09:32:39;;;;;;;17.13;8.23;;;154.20;1664.00;;;;;;5096008;28;20024;-60
2022/01/29 09:35:06;;;;;;;16.83;8.38;;;154.20;1664.00;;;;;;5096200;28;20023;-59
2022/01/29 09:37:32;;;;;;;14.15;7.10;;;154.20;1664.00;;;;;;5095692;28;20024;-60
2022/01/29 09:39:57;;;;;;;16.60;8.82;;;154.30;1638.40;;;;;;5096308;28;20488;-59
2022/01/29 09:42:24;;;;;;;28.75;13.18;;;154.30;1638.40;;;;;;5095848;28;20028;-59
2022/01/29 09:44:52;;;;;;;31.92;13.23;;;154.30;1638.40;;;;;;5095799;28;20020;-59
2022/01/29 09:47:21;;;;;;;27.77;14.00;;;154.40;1638.40;;;;;;5096001;28;20084;-59
2022/01/29 09:49:47;;;;;;;26.80;13.18;;;154.50;1612.80;;;;;;5095623;28;20024;-59
2022/01/29 09:52:13;;;;;;;23.58;12.90;;;179.20;1612.80;;;;;;5096088;28;20020;-59
2022/01/29 09:54:39;;;;;;;27.55;13.02;;;179.20;1638.40;;;;;;5095842;28;20027;-60
2022/01/29 09:57:05;;;;;;;33.42;14.68;;;179.20;1638.40;;;;;;5095436;28;20123;-60
2022/01/29 09:59:31;;;;;;;44.75;19.33;;;179.20;1612.80;;;;;;5095710;28;20062;-59
2022/01/29 10:01:57;;;;;;;48.13;20.95;;;179.20;1638.40;;;;;;5095507;28;20513;-59
2022/01/29 10:04:24;;;;;;;49.80;22.08;;;179.30;1612.80;;;;;;5095500;28;20026;-59
2022/01/29 10:07:13;;;;;;;45.40;19.55;;;179.40;1612.80;;;;;;5095033;28;20113;-59
2022/01/29 10:09:38;;;;;;;32.88;16.70;;;179.40;1612.80;;;;;;5095366;28;20465;-59
2022/01/29 10:12:24;;;;;;;26.73;12.27;;;179.40;1612.80;;;;;;5095453;28;20027;-60
2022/01/29 10:15:01;;;;;;;17.75;10.48;;;179.50;1587.20;;;;;;5095499;28;20045;-59
2022/01/29 10:17:49;;;;;;;20.75;9.93;;;179.50;1587.20;;;;;;5095516;28;20240;-59
2022/01/29 10:20:18;;;;;;;14.95;7.68;;;179.60;1587.20;;;;;;5094554;28;20028;-59
2022/01/29 10:23:02;;;;;;;14.73;7.28;;;179.70;1587.20;;;;;;5095244;28;20016;-59
2022/01/29 10:25:29;;;;;;;13.73;7.53;;;179.80;1561.60;;;;;;5094992;28;20493;-59
2022/01/29 10:28:04;;;;;;;15.15;7.85;;;179.80;1561.60;;;;;;5095250;28;20059;-59
2022/01/29 10:30:30;;;;;;;;;;;179.80;1587.20;;;;;;5095512;28;20028;-59
2022/01/29 10:33:18;;;;;;;14.50;7.28;;;179.90;1561.60;;;;;;5095239;28;19997;-59
2022/01/29 10:35:48;;;;;;;10.60;5.85;;;179.90;1561.60;;;;;;5094774;28;20032;-60
2022/01/29 10:38:13;;;;;;;14.40;6.78;;;180.00;1536.00;;;;;;5094952;28;20028;-59
2022/01/29 10:40:39;;;;;;;25.55;10.38;;;180.00;1536.00;;;;;;5094207;28;20027;-59
2022/01/29 10:43:06;;;;;;;16.13;8.13;;;180.10;1561.60;;;;;;5095058;28;20032;-59
2022/01/29 10:45:36;;;;;;;16.70;8.02;;;204.80;1536.00;;;;;;5094668;28;20028;-59
2022/01/29 10:48:05;;;;;;;12.70;7.28;;;204.80;1536.00;;;;;;5094607;28;20031;-59
2022/01/29 10:50:31;;;;;;;15.25;7.60;;;204.90;1510.40;;;;;;5094783;28;20028;-59
2022/01/29 10:53:23;;;;;;;18.25;6.88;;;204.90;1510.40;;;;;;5094464;28;20043;-59
2022/01/29 10:56:00;;;;;;;11.27;6.22;;;205.00;1484.80;;;;;;5094412;28;20063;-59
2022/01/29 10:58:26;;;;;;;11.60;5.68;;;205.00;1484.80;;;;;;5094676;28;20024;-59
2022/01/29 11:01:12;;;;;;;8.85;4.97;;;205.10;1484.80;;;;;;5094390;28;20441;-59
2022/01/29 11:03:38;;;;;;;35.97;6.80;;;205.10;1484.80;;;;;;5094391;28;20499;-60
2022/01/29 11:06:06;;;;;;;21.15;4.88;;;205.20;1510.40;;;;;;5093809;28;20043;-60
2022/01/29 11:08:32;;;;;;;44.60;8.93;;;205.20;1459.20;;;;;;5094268;28;20032;-60
2022/01/29 11:10:58;;;;;;;12.30;4.22;;;205.10;1459.20;;;;;;5094384;28;20028;-63
2022/01/29 11:13:25;;;;;;;12.27;4.40;;;205.10;1459.20;;;;;;5094071;28;20810;-66
2022/01/29 11:15:52;;;;;;;19.85;7.65;;;205.10;1459.20;;;;;;5094755;28;20118;-65
2022/01/29 11:18:18;;;;;;;31.42;12.82;;;205.30;1766.40;;;;;;5094341;28;20089;-65
2022/01/29 11:20:44;;;;;;;29.80;12.73;;;230.50;1766.40;;;;;;5094187;28;20031;-63
2022/01/29 11:23:11;;;;;;;159.55;74.97;;;230.90;1638.40;;;;;;5093569;28;20462;-66
2022/01/29 11:25:37;;;;;;;261.27;117.53;;;231.30;1561.60;;;;;;5093820;28;20032;-71
2022/01/29 11:28:15;;;;;;;144.77;67.90;;;256.30;1484.80;;;;;;5093892;28;20240;-63
2022/01/29 11:30:43;;;;;;;59.33;32.72;;;256.50;1484.80;;;;;;5088144;28;20028;-56
2022/01/29 11:33:09;;;;;;;27.10;16.85;;;256.80;1356.80;;;;;;5091174;28;20032;-61
2022/01/29 11:35:51;;;;;;;72.97;54.13;;;256.60;1305.60;;;;;;5093886;28;20481;-66
2022/01/29 11:38:33;;;;;;;51.97;38.20;;;256.40;1280.00;;;;;;5092863;28;20035;-60
2022/01/29 11:41:02;;;;;;;70.22;40.85;;;256.40;1280.00;;;;;;5090298;28;20024;-61
2022/01/29 11:43:29;;;;;;;35.13;20.08;;;256.00;1280.00;;;;;;5092993;28;20024;-61
2022/01/29 11:46:30;;;;;;;119.72;60.85;;;231.30;1305.60;;;;;;5092269;28;20026;-61
2022/01/29 11:48:57;;;;;;;104.75;52.00;;;231.10;1331.20;;;;;;5090641;28;20488;-62
2022/01/29 11:51:47;;;;;;;36.67;19.67;;;231.10;1331.20;;;;;;5092142;28;20058;-61
2022/01/29 11:54:20;;;;;;;22.92;14.10;;;231.00;1331.20;;;;;;5077959;28;20036;-60
2022/01/29 11:56:47;;;;;;;27.80;20.67;;;230.90;1331.20;;;;;;5093476;28;20070;-61
2022/01/29 11:59:24;;;;;;;18.25;13.27;;;230.80;1331.20;;;;;;5093740;28;20035;-64
2022/01/29 12:01:52;;;;;;;102.13;64.03;;;230.70;1331.20;;;;;;5092565;28;20024;-60
2022/01/29 12:04:20;;;;;;;62.85;41.40;;;230.60;1356.80;;;;;;5093254;28;20365;-62
2022/01/29 12:07:20;;;;;;;29.63;18.95;;;230.60;1382.40;;;;;;5091547;28;20036;-60
2022/01/29 12:10:05;;;;;;;13.38;8.30;;;230.70;1356.80;;;;;;5090938;28;20016;-61
2022/01/29 12:12:40;;;;;;;;;;;230.60;1356.80;;;;;;5092014;28;20163;-60
2022/01/29 12:15:09;;;;;;;8.50;4.30;;;230.70;1356.80;;;;;;5090640;28;19915;-61
2022/01/29 12:17:44;;;;;;;12.88;5.53;;;230.70;1305.60;;;;;;5092000;28;20095;-59
2022/01/29 12:20:12;;;;;;;15.10;8.07;;;230.60;1305.60;;;;;;5092206;28;20028;-60
2022/01/29 12:22:39;;;;;;;19.63;10.43;;;230.60;1331.20;;;;;;5089427;28;20016;-60
2022/01/29 12:25:10;;;;;;;15.15;7.85;;;230.70;1305.60;;;;;;5091996;28;20031;-59
2022/01/29 12:27:53;;;;;;;11.88;6.40;;;230.60;1305.60;;;;;;5091150;28;20076;-62
2022/01/29 12:30:24;;;;;;;14.93;7.22;;;230.60;1331.20;;;;;;5090629;28;20350;-62
2022/01/29 12:33:15;;;;;;;8.57;5.43;;;230.60;1331.20;;;;;;5089223;28;20032;-60